11.400 kWh

EHAM AMSTERDAM/SCHIPHOL NLD -3 m.
METAR EHAM 211755Z 04007KT CAVOK 18/05 Q1016 NOSIG

EHAM AMSTERDAM/SCHIPHOL NLD -3 m.
TAF EHAM 211713Z 2118/2224 06007KT CAVOK
BECMG 2205/2208 10010KT
TEMPO 2211/2221 11013G23KT